Time;durP1;ratioP1;P1;durP2;ratioP2;P2;SDS_P1;SDS_P2;PMS_P1;PMS_P2;Temp;Humidity;BMP_temperature;BMP_pressure;BME280_temperature;BME280_humidity;BME280_pressure;Samples;Min_cycle;Max_cycle;Signal;HPM_P1;HPM_P2
2021/05/11 00:01:18;;;;;;;26.10;12.53;;;;;;;7.86;57.75;100182.98;1691671;85;21746;-74
2021/05/11 00:03:47;;;;;;;24.87;12.30;;;;;;;7.82;57.69;100174.39;1683216;85;21193;-74
2021/05/11 00:06:15;;;;;;;24.25;11.70;;;;;;;7.76;58.04;100175.19;1694865;84;21172;-74
2021/05/11 00:08:42;;;;;;;25.23;13.08;;;;;;;7.69;58.65;100174.18;1747633;82;21196;-74
2021/05/11 00:11:10;;;;;;;29.90;12.63;;;;;;;7.66;58.40;100173.03;1747214;82;21164;-74
2021/05/11 00:13:37;;;;;;;24.07;12.28;;;;;;;7.65;57.91;100171.80;1747733;82;21175;-74
2021/05/11 00:16:05;;;;;;;21.60;12.03;;;;;;;7.65;57.83;100156.01;1747394;82;21289;-74
2021/05/11 00:18:33;;;;;;;23.77;12.58;;;;;;;7.64;57.87;100157.77;1747629;82;21180;-74
2021/05/11 00:21:00;;;;;;;21.25;11.93;;;;;;;7.65;57.89;100162.11;1719918;82;21318;-74
2021/05/11 00:23:28;;;;;;;26.05;12.88;;;;;;;7.61;57.86;100153.13;1716481;83;21187;-74
2021/05/11 00:25:55;;;;;;;26.12;12.37;;;;;;;7.57;58.19;100145.87;1716634;82;21140;-74
2021/05/11 00:28:23;;;;;;;23.98;11.73;;;;;;;7.56;58.76;100146.80;1747542;82;21157;-74
2021/05/11 00:30:50;;;;;;;23.02;11.90;;;;;;;7.54;58.63;100148.20;1747393;82;21170;-74
2021/05/11 00:33:17;;;;;;;28.77;13.22;;;;;;;7.54;58.31;100146.89;1747460;81;21146;-74
2021/05/11 00:35:45;;;;;;;27.65;14.15;;;;;;;7.55;57.97;100146.41;1747572;82;21194;-74
2021/05/11 00:38:12;;;;;;;28.50;13.85;;;;;;;7.54;57.75;100149.52;1747615;82;21176;-75
2021/05/11 00:40:41;;;;;;;27.02;12.45;;;;;;;7.54;57.83;100144.70;1747460;82;21550;-74
2021/05/11 00:43:08;;;;;;;22.42;12.20;;;;;;;7.54;58.23;100143.39;1746472;81;21338;-75
2021/05/11 00:45:36;;;;;;;26.02;12.73;;;;;;;7.53;58.41;100142.55;1746574;82;21592;-75
2021/05/11 00:48:03;;;;;;;24.02;11.95;;;;;;;7.51;58.27;100140.92;1725453;82;21167;-75
2021/05/11 00:50:31;;;;;;;24.37;12.13;;;;;;;7.50;57.89;100139.22;1723394;82;21135;-75
2021/05/11 00:52:58;;;;;;;31.95;13.05;;;;;;;7.52;57.68;100136.05;1722838;83;21206;-74
2021/05/11 00:55:26;;;;;;;26.68;11.65;;;;;;;7.55;58.07;100131.94;1724512;82;22213;-74
2021/05/11 00:57:54;;;;;;;23.32;11.55;;;;;;;7.56;58.06;100141.54;1723069;83;22211;-75
2021/05/11 01:00:22;;;;;;;25.15;12.18;;;;;;;7.51;58.26;100141.77;1729570;82;21267;-74
2021/05/11 01:02:49;;;;;;;20.97;11.33;;;;;;;7.46;58.52;100127.16;1745807;82;21581;-74
2021/05/11 01:05:16;;;;;;;25.45;12.78;;;;;;;7.42;58.59;100120.32;1745163;82;21318;-74
2021/05/11 01:07:47;;;;;;;27.15;12.58;;;;;;;7.40;59.45;100135.36;1745208;82;21330;-74
2021/05/11 01:10:14;;;;;;;24.60;12.35;;;;;;;7.32;59.67;100130.01;1731266;82;21465;-75
2021/05/11 01:12:43;;;;;;;27.20;14.03;;;;;;;7.35;59.88;100133.81;1740757;82;21680;-75
2021/05/11 01:15:13;;;;;;;26.65;13.20;;;;;;;7.53;59.66;100133.78;1740122;82;21188;-75
2021/05/11 01:17:49;;;;;;;23.77;12.85;;;;;;;7.58;59.85;100136.19;1745959;82;21326;-75
2021/05/11 01:20:24;;;;;;;27.15;14.15;;;;;;;7.54;59.96;100130.23;1739926;82;21707;-75
2021/05/11 01:25:11;;;;;;;23.32;12.20;;;;;;;7.47;59.48;100124.44;1741150;82;21157;-74
2021/05/11 01:30:49;;;;;;;21.90;11.60;;;;;;;7.45;59.83;100113.60;1722693;82;21164;-74
2021/05/11 01:49:50;;;;;;;23.62;11.95;;;;;;;7.29;60.43;100122.28;1731263;81;21170;-74
2021/05/11 01:54:40;;;;;;;20.02;10.60;;;;;;;7.23;60.42;100118.64;1731099;83;21138;-74
2021/05/11 02:11:05;;;;;;;15.85;9.40;;;;;;;7.52;57.23;100129.00;1693546;85;21151;-74
2021/05/11 02:23:59;;;;;;;16.52;8.83;;;;;;;7.64;56.16;100126.66;1654538;84;21184;-74
2021/05/11 02:26:26;;;;;;;17.07;9.38;;;;;;;7.66;56.23;100126.97;1678901;85;21203;-74
2021/05/11 02:28:53;;;;;;;15.48;8.83;;;;;;;7.70;56.24;100117.13;1679146;85;21756;-74
2021/05/11 02:31:22;;;;;;;13.30;8.80;;;;;;;7.70;57.11;100120.60;1678883;85;21220;-74
2021/05/11 02:33:50;;;;;;;15.40;9.05;;;;;;;7.65;57.20;100130.52;1694400;84;21159;-74
2021/05/11 02:36:17;;;;;;;18.32;10.10;;;;;;;7.61;57.23;100134.70;1679115;85;21740;-74
2021/05/11 02:38:44;;;;;;;17.75;9.18;;;;;;;7.58;57.51;100134.88;1679075;85;21361;-74
2021/05/11 02:41:14;;;;;;;16.00;9.73;;;;;;;7.53;57.73;100123.25;1678907;85;21707;-75
2021/05/11 02:43:43;;;;;;;21.95;10.58;;;;;;;7.49;58.10;100124.34;1686675;84;21190;-75
2021/05/11 02:46:10;;;;;;;15.98;9.75;;;;;;;7.46;58.38;100131.10;1687497;84;21190;-74
2021/05/11 02:48:39;;;;;;;18.17;10.03;;;;;;;7.40;58.61;100130.94;1707024;84;21623;-75
2021/05/11 02:51:06;;;;;;;18.23;9.98;;;;;;;7.37;59.60;100125.36;1706866;84;21356;-74
2021/05/11 02:53:34;;;;;;;18.37;10.30;;;;;;;7.35;60.05;100123.30;1691912;84;21304;-75
2021/05/11 02:56:01;;;;;;;20.08;11.55;;;;;;;7.32;60.62;100117.33;1693276;84;21607;-74
2021/05/11 02:58:30;;;;;;;23.90;12.15;;;;;;;7.38;60.32;100120.48;1727085;83;21183;-75
2021/05/11 03:00:57;;;;;;;21.95;12.95;;;;;;;7.61;59.81;100118.45;1698235;84;21172;-74
2021/05/11 03:03:24;;;;;;;21.42;11.55;;;;;;;7.66;59.83;100120.83;1714762;83;21150;-75
2021/05/11 03:05:52;;;;;;;22.25;12.10;;;;;;;7.61;59.64;100123.72;1698395;84;21762;-74
2021/05/11 03:08:19;;;;;;;22.75;12.40;;;;;;;7.58;59.79;100123.86;1668638;86;21194;-75
2021/05/11 03:10:48;;;;;;;17.32;10.63;;;;;;;7.58;60.03;100125.18;1686468;85;21192;-74
2021/05/11 03:13:15;;;;;;;19.95;11.03;;;;;;;7.58;60.21;100117.28;1686947;84;21188;-75
2021/05/11 03:15:42;;;;;;;22.75;11.55;;;;;;;7.59;60.40;100115.05;1688406;84;21309;-74
2021/05/11 03:18:10;;;;;;;20.45;10.98;;;;;;;7.62;60.65;100108.77;1683364;85;21797;-74
2021/05/11 03:20:38;;;;;;;21.62;10.15;;;;;;;7.64;60.98;100113.02;1683353;85;21206;-74
2021/05/11 03:23:06;;;;;;;19.75;10.00;;;;;;;7.67;61.24;100104.98;1684089;84;21706;-74
2021/05/11 03:25:34;;;;;;;17.73;9.88;;;;;;;7.75;61.44;100111.61;1707812;84;21333;-75
2021/05/11 03:28:02;;;;;;;16.52;8.98;;;;;;;7.84;61.56;100117.72;1711888;84;21189;-75
2021/05/11 03:30:29;;;;;;;17.50;9.40;;;;;;;8.25;61.30;100121.22;1711840;84;21201;-74
2021/05/11 03:32:57;;;;;;;16.75;9.08;;;;;;;9.13;59.70;100116.30;1712011;84;21652;-74
2021/05/11 03:35:26;;;;;;;14.38;8.75;;;;;;;10.13;57.57;100104.60;1695994;84;21186;-74
2021/05/11 03:37:53;;;;;;;15.78;9.03;;;;;;;10.99;55.01;100098.22;1679496;85;21352;-75
2021/05/11 03:40:21;;;;;;;13.50;7.97;;;;;;;11.74;52.96;100096.69;1696582;84;21183;-75
2021/05/11 03:45:36;;;;;;;14.70;8.88;;;;;;;12.93;49.33;100082.41;1765661;79;23598;-74
2021/05/11 03:48:08;;;;;;;16.75;9.63;;;;;;;13.41;48.21;100076.64;1758920;79;22985;-74
2021/05/11 03:50:54;;;;;;;14.50;8.35;;;;;;;13.73;47.65;100075.95;1678914;85;21349;-74
2021/05/11 03:53:29;;;;;;;14.65;8.55;;;;;;;14.08;46.92;100077.65;1819155;79;22825;-75
2021/05/11 03:56:04;;;;;;;15.60;8.48;;;;;;;14.42;46.66;100074.91;1769901;79;23002;-75
2021/05/11 03:58:50;;;;;;;12.98;8.95;;;;;;;14.80;45.57;100080.77;1723044;83;21186;-76
2021/05/11 04:01:24;;;;;;;17.67;9.15;;;;;;;15.10;44.46;100076.00;1780390;79;22938;-75
2021/05/11 04:04:04;;;;;;;13.22;8.75;;;;;;;15.32;43.26;100076.84;1814678;79;23378;-75
2021/05/11 04:06:49;;;;;;;15.55;9.78;;;;;;;15.48;42.64;100085.22;1789366;78;21285;-75
2021/05/11 04:09:37;;;;;;;25.92;13.75;;;;;;;15.76;42.93;100092.18;1908693;73;23399;-75
2021/05/11 04:18:06;;;;;;;15.63;8.45;;;;;;;16.85;40.99;100099.03;1753097;79;22977;-76
2021/05/11 04:20:48;;;;;;;17.55;9.63;;;;;;;17.29;39.26;100091.06;1928438;74;22875;-75
2021/05/11 04:23:24;;;;;;;13.00;7.28;;;;;;;17.61;39.16;100088.53;1754295;79;28904;-75
2021/05/11 04:26:11;;;;;;;9.35;5.53;;;;;;;18.21;37.50;100087.33;1924451;73;23260;-75
2021/05/11 04:28:49;;;;;;;10.60;4.72;;;;;;;18.61;34.79;100089.62;1766707;79;22953;-76
2021/05/11 04:31:38;;;;;;;8.05;4.15;;;;;;;18.84;33.96;100092.68;1727060;82;21143;-76
2021/05/11 04:34:19;;;;;;;7.97;3.80;;;;;;;19.08;31.61;100082.36;1927895;73;22828;-79
2021/05/11 04:36:59;;;;;;;8.78;3.80;;;;;;;19.07;31.74;100081.52;1760354;79;22921;-81
2021/05/11 04:39:45;;;;;;;6.33;4.05;;;;;;;19.13;31.89;100078.23;1724261;83;21194;-82
2021/05/11 04:42:20;;;;;;;7.50;4.25;;;;;;;19.41;30.70;100074.56;1815766;76;22952;-78
2021/05/11 04:44:59;;;;;;;7.37;3.77;;;;;;;19.62;30.72;100072.86;1787300;79;28633;-76
2021/05/11 04:47:48;;;;;;;6.62;3.60;;;;;;;20.08;29.16;100073.44;1765863;79;23127;-78
2021/05/11 04:50:41;;;;;;;5.97;3.10;;;;;;;20.27;28.04;100075.53;1928484;74;22846;-75
2021/05/11 04:53:26;;;;;;;7.85;3.70;;;;;;;20.24;28.31;100079.86;1889791;74;21130;-75
2021/05/11 04:56:11;;;;;;;6.12;3.72;;;;;;;20.28;28.16;100073.16;1909101;75;21420;-75
2021/05/11 04:58:45;;;;;;;7.35;3.72;;;;;;;20.39;28.03;100067.48;1760587;79;22945;-76
2021/05/11 05:01:21;;;;;;;7.12;3.55;;;;;;;20.46;27.88;100064.48;1767421;79;22952;-76
2021/05/11 05:03:59;;;;;;;6.60;3.85;;;;;;;20.50;27.42;100062.80;1760129;79;22978;-76
2021/05/11 05:06:45;;;;;;;7.17;3.65;;;;;;;20.48;27.57;100070.20;1732008;82;21167;-74
2021/05/11 05:09:31;;;;;;;5.95;3.85;;;;;;;20.49;27.31;100071.37;1741589;82;21516;-73
2021/05/11 05:12:06;;;;;;;7.65;3.50;;;;;;;20.56;28.02;100071.55;1771632;79;22979;-73
2021/05/11 05:14:42;;;;;;;4.62;3.30;;;;;;;20.65;27.04;100068.38;1786920;79;28378;-75
2021/05/11 05:17:27;;;;;;;5.78;3.35;;;;;;;20.73;26.52;100065.23;1768307;80;21314;-74
2021/05/11 05:20:13;;;;;;;6.08;3.55;;;;;;;20.82;27.35;100067.42;1780442;80;21170;-73
2021/05/11 05:22:53;;;;;;;5.83;3.65;;;;;;;20.73;27.21;100059.86;1764545;79;22998;-73
2021/05/11 05:25:33;;;;;;;4.12;3.45;;;;;;;20.66;27.48;100061.48;1778185;79;22957;-74
2021/05/11 05:28:18;;;;;;;6.90;4.08;;;;;;;20.65;27.56;100060.31;1741693;82;21183;-76
2021/05/11 05:31:06;;;;;;;5.15;3.05;;;;;;;20.71;26.82;100052.45;1722672;82;21597;-77
2021/05/11 05:33:47;;;;;;;6.22;3.37;;;;;;;20.79;26.46;100055.65;1946414;73;22821;-74
2021/05/11 05:36:22;;;;;;;9.20;3.37;;;;;;;20.71;26.64;100050.28;1779467;79;24186;-76
2021/05/11 05:39:07;;;;;;;5.78;3.47;;;;;;;20.62;26.82;100047.53;1744713;82;21111;-75
2021/05/11 05:41:42;;;;;;;7.53;3.50;;;;;;;20.54;26.69;100044.86;1811876;79;23288;-77
2021/05/11 05:44:16;;;;;;;6.70;3.20;;;;;;;20.36;26.16;100034.25;1779465;79;23459;-75
2021/05/11 05:47:02;;;;;;;4.85;3.15;;;;;;;20.14;26.97;100039.72;1751925;82;21112;-78
2021/05/11 05:52:20;;;;;;;5.03;2.62;;;;;;;19.91;26.35;100054.23;1780207;79;22933;-77
2021/05/11 05:55:07;;;;;;;5.30;3.10;;;;;;;19.81;26.81;100053.83;1732740;82;21309;-77
2021/05/11 05:57:40;;;;;;;5.40;3.20;;;;;;;19.87;26.38;100036.77;1773047;79;28778;-77
2021/05/11 06:00:20;;;;;;;5.47;3.25;;;;;;;20.14;26.37;100036.55;1752771;79;22247;-77
2021/05/11 06:03:08;;;;;;;6.83;2.90;;;;;;;20.22;26.06;100039.75;1722209;83;21333;-77
2021/05/11 06:05:53;;;;;;;5.55;3.25;;;;;;;20.22;26.66;100032.21;1694470;85;21684;-77
2021/05/11 06:08:33;;;;;;;9.68;3.67;;;;;;;20.22;26.42;100029.53;1778311;79;23001;-76
2021/05/11 06:11:27;;;;;;;4.05;3.00;;;;;;;20.26;26.38;100037.59;1817793;79;22828;-77
2021/05/11 06:14:16;;;;;;;6.75;3.05;;;;;;;20.28;26.22;100040.45;1794706;79;21274;-77
2021/05/11 06:19:48;;;;;;;4.78;2.75;;;;;;;20.30;24.88;100033.05;1760771;79;23132;-77
2021/05/11 06:22:33;;;;;;;6.83;3.17;;;;;;;20.18;26.15;100029.49;1750245;82;21099;-77
2021/05/11 06:25:11;;;;;;;4.20;2.70;;;;;;;20.20;24.73;100031.02;1779478;79;23151;-77
2021/05/11 06:27:50;;;;;;;4.67;2.90;;;;;;;20.09;24.72;100028.14;1758211;79;23436;-78
2021/05/11 06:30:35;;;;;;;5.53;2.90;;;;;;;19.93;25.36;100029.42;1657406;84;21204;-77
2021/05/11 06:33:12;;;;;;;4.20;3.30;;;;;;;19.84;24.69;100031.74;1803673;79;27764;-77
2021/05/11 06:35:48;;;;;;;4.97;2.85;;;;;;;20.00;24.43;100034.49;1780096;79;22977;-76
2021/05/11 06:38:29;;;;;;;6.80;2.83;;;;;;;20.12;24.78;100036.37;1906391;73;22880;-78
2021/05/11 06:41:05;;;;;;;6.92;3.00;;;;;;;20.05;24.72;100038.02;1744719;79;28717;-77
2021/05/11 06:44:00;;;;;;;5.22;2.75;;;;;;;20.23;25.07;100033.87;1722945;82;21187;-77
2021/05/11 06:49:28;;;;;;;6.22;3.40;;;;;;;20.36;24.21;100023.51;1779675;79;22936;-76
2021/05/11 06:55:09;;;;;;;6.42;2.45;;;;;;;20.22;25.21;100030.87;1778507;79;22947;-77
2021/05/11 06:57:54;;;;;;;4.25;2.80;;;;;;;20.14;23.70;100023.13;1738941;82;21325;-76
2021/05/11 07:00:34;;;;;;;3.40;2.50;;;;;;;19.95;23.53;100020.20;1791967;79;22975;-75
2021/05/11 07:03:09;;;;;;;3.60;2.62;;;;;;;19.79;23.74;100022.28;1778222;79;22991;-76
2021/05/11 07:05:54;;;;;;;5.10;2.87;;;;;;;19.61;23.53;100034.95;1725179;82;21147;-76
2021/05/11 07:08:38;;;;;;;4.40;2.83;;;;;;;19.55;25.14;100030.22;1762514;79;22967;-76
2021/05/11 07:14:19;;;;;;;7.12;3.17;;;;;;;19.84;25.10;100021.02;1945380;73;22879;-77
2021/05/11 07:17:01;;;;;;;4.62;2.95;;;;;;;19.96;25.92;100022.38;1774031;79;22886;-77
2021/05/11 07:19:47;;;;;;;4.83;2.72;;;;;;;19.88;26.10;100029.90;1730416;82;21099;-79
2021/05/11 07:22:27;;;;;;;5.47;2.77;;;;;;;19.94;25.42;100025.75;1774111;79;23018;-77
2021/05/11 07:25:12;;;;;;;6.50;3.10;;;;;;;19.89;24.63;100017.34;1753714;79;24049;-76
2021/05/11 07:30:33;;;;;;;5.12;3.10;;;;;;;19.83;25.31;100035.42;1765004;79;28632;-78
2021/05/11 07:33:16;;;;;;;5.85;2.90;;;;;;;20.03;25.29;100032.81;1744577;82;21135;-77
2021/05/11 07:35:50;;;;;;;4.37;2.80;;;;;;;20.06;25.92;100020.39;1790761;79;22968;-77
2021/05/11 07:38:30;;;;;;;5.03;2.90;;;;;;;19.92;26.23;100021.89;1768154;79;22944;-76
2021/05/11 07:41:17;;;;;;;3.90;2.55;;;;;;;19.81;25.89;100022.97;1723198;83;21123;-76
2021/05/11 07:43:58;;;;;;;3.95;2.80;;;;;;;19.64;24.92;100019.87;1779390;79;22914;-78
2021/05/11 08:04:22;;;;;;;4.50;2.80;;;;;;;19.39;27.60;99976.84;1785098;80;21135;-76
2021/05/11 08:15:35;;;;;;;18.02;5.55;;;;;;;19.59;26.81;99959.15;1792709;80;21813;-76
2021/05/11 08:27:42;;;;;;;3.37;2.72;;;;;;;19.93;28.16;99966.35;1722475;82;21199;-77
2021/05/11 08:30:21;;;;;;;5.08;3.08;;;;;;;19.96;27.88;99966.01;1736483;82;21215;-76
2021/05/11 08:32:56;;;;;;;5.25;2.80;;;;;;;19.93;28.17;99947.56;1819135;79;22853;-75
2021/05/11 08:35:36;;;;;;;6.47;2.70;;;;;;;19.92;27.80;99951.25;1818882;79;22827;-76
2021/05/11 08:38:21;;;;;;;6.58;3.00;;;;;;;19.88;28.45;99951.24;1784828;80;21137;-76
2021/05/11 08:41:06;;;;;;;6.85;3.37;;;;;;;19.91;28.42;99940.17;1778033;79;22909;-76
2021/05/11 08:43:51;;;;;;;10.75;4.25;;;;;;;19.89;28.46;99947.56;1753159;82;21163;-76
2021/05/11 08:46:25;;;;;;;3.98;2.70;;;;;;;19.93;29.05;99953.76;1780275;79;22941;-76
2021/05/11 08:49:04;;;;;;;4.83;2.52;;;;;;;19.96;28.87;99952.59;1818506;79;22945;-76
2021/05/11 09:06:40;;;;;;;5.85;3.12;;;;;;;20.09;28.95;99930.64;1779912;79;22938;-76
2021/05/11 09:24:48;;;;;;;4.25;2.83;;;;;;;20.05;28.71;99919.41;1753348;82;21789;-76
2021/05/11 09:30:38;;;;;;;5.20;2.98;;;;;;;20.14;30.29;99904.98;1895131;74;22906;-75
2021/05/11 09:33:23;;;;;;;5.20;2.80;;;;;;;20.21;30.33;99901.64;1819134;79;23291;-76
2021/05/11 09:45:25;;;;;;;5.10;2.75;;;;;;;20.55;30.38;99885.83;1779985;79;22975;-75
2021/05/11 10:00:11;;;;;;;6.62;2.75;;;;;;;21.00;30.80;99873.69;1781280;79;23445;-75
2021/05/11 10:48:27;;;;;;;8.10;3.67;;;;;;;22.05;29.19;99813.77;1792692;80;21142;-74
2021/05/11 10:51:20;;;;;;;6.37;3.17;;;;;;;22.15;30.83;99809.45;1777653;79;22967;-78
2021/05/11 10:54:09;;;;;;;10.00;2.90;;;;;;;22.17;31.47;99812.80;1749901;82;21111;-75
2021/05/11 10:56:47;;;;;;;6.72;2.45;;;;;;;22.13;30.88;99800.21;1777702;79;22925;-76
2021/05/11 11:02:38;;;;;;;7.22;3.05;;;;;;;22.18;30.23;99807.75;1790760;79;23587;-77
2021/05/11 11:05:05;;;;;;;6.87;3.08;;;;;;;22.25;29.81;99803.30;1765698;79;22980;-77
2021/05/11 11:07:50;;;;;;;7.03;2.77;;;;;;;22.27;31.48;99801.27;1723131;83;21146;-77
2021/05/11 11:10:35;;;;;;;3.85;2.60;;;;;;;22.39;31.69;99799.84;1732334;82;21119;-76
2021/05/11 11:13:11;;;;;;;6.90;3.08;;;;;;;22.53;30.48;99790.59;1776681;79;22975;-76
2021/05/11 11:15:46;;;;;;;6.85;2.95;;;;;;;22.58;30.27;99801.65;1775585;79;23370;-76
2021/05/11 11:18:22;;;;;;;6.33;3.45;;;;;;;22.60;30.64;99794.22;1777791;79;22937;-77
2021/05/11 11:23:57;;;;;;;4.70;2.58;;;;;;;22.62;30.11;99791.34;1678659;85;21315;-77
2021/05/11 11:26:42;;;;;;;2.98;2.17;;;;;;;22.68;30.31;99794.64;1779444;79;22957;-77
2021/05/11 11:29:22;;;;;;;6.90;2.60;;;;;;;22.68;30.49;99787.91;1765197;79;22963;-76
2021/05/11 11:32:08;;;;;;;4.40;2.50;;;;;;;22.63;30.44;99784.41;1738194;82;21156;-77
2021/05/11 11:34:55;;;;;;;5.35;2.40;;;;;;;22.64;31.12;99779.34;1673486;85;21113;-76
2021/05/11 11:37:38;;;;;;;4.85;2.52;;;;;;;22.75;31.00;99769.45;1807276;79;22953;-76
2021/05/11 11:40:16;;;;;;;4.00;2.70;;;;;;;22.82;30.18;99768.18;1774767;79;28245;-76
2021/05/11 11:43:01;;;;;;;5.33;2.80;;;;;;;22.96;29.96;99768.37;1761205;81;21196;-76
2021/05/11 11:45:47;;;;;;;5.22;2.50;;;;;;;23.17;30.82;99763.55;1761276;81;21138;-76
2021/05/11 11:48:24;;;;;;;6.00;3.08;;;;;;;23.24;30.22;99761.77;1764355;79;28611;-76
2021/05/11 11:51:02;;;;;;;5.47;2.70;;;;;;;23.39;29.74;99753.11;1779959;79;23587;-76
2021/05/11 11:53:39;;;;;;;5.35;2.87;;;;;;;23.50;29.66;99753.10;1779861;79;22908;-77
2021/05/11 11:56:36;;;;;;;4.58;2.40;;;;;;;23.44;31.38;99744.95;1819349;79;22844;-76
2021/05/11 11:59:14;;;;;;;5.05;2.60;;;;;;;23.42;30.73;99750.55;1764406;80;22142;-76
2021/05/11 12:02:01;;;;;;;4.90;2.62;;;;;;;23.42;30.15;99744.32;1746254;82;21279;-76
2021/05/11 12:04:38;;;;;;;5.28;2.20;;;;;;;23.36;30.43;99734.63;1779642;79;23087;-76
2021/05/11 12:07:17;;;;;;;5.62;2.62;;;;;;;23.31;29.88;99730.31;1818108;79;22225;-76
2021/05/11 12:10:05;;;;;;;8.08;2.65;;;;;;;23.22;30.16;99734.14;1790706;80;21293;-76
2021/05/11 12:12:39;;;;;;;5.75;2.33;;;;;;;23.21;30.76;99745.95;1801303;79;48696;-76
2021/05/11 12:26:31;;;;;;;6.55;3.10;;;;;;;25.02;28.53;99717.03;1749057;81;22967;-65
2021/05/11 12:29:13;;;;;;;8.18;2.45;;;;;;;25.09;28.30;99733.31;1761826;79;23460;-65
2021/05/11 12:31:58;;;;;;;7.40;2.10;;;;;;;24.94;28.33;99733.46;1753007;82;21575;-65
2021/05/11 12:34:34;;;;;;;4.05;2.30;;;;;;;24.79;28.46;99717.91;1817354;79;22916;-64
2021/05/11 12:37:08;;;;;;;4.97;2.27;;;;;;;24.72;28.75;99715.68;1780310;79;22899;-64
2021/05/11 12:39:49;;;;;;;6.37;3.45;;;;;;;24.76;29.03;99729.11;1799406;79;28126;-65
2021/05/11 12:42:24;;;;;;;6.72;2.40;;;;;;;24.85;28.55;99707.11;1775301;79;22955;-65
2021/05/11 12:45:16;;;;;;;4.97;1.87;;;;;;;24.89;28.94;99712.13;1724439;82;21294;-65
2021/05/11 12:48:07;;;;;;;5.58;2.47;;;;;;;24.81;28.60;99705.00;1806932;79;22904;-66
2021/05/11 12:50:44;;;;;;;5.60;2.12;;;;;;;24.65;29.49;99706.20;1779850;79;22980;-67
2021/05/11 12:53:40;;;;;;;7.15;2.90;;;;;;;24.54;28.80;99705.70;1752955;81;21156;-68
2021/05/11 13:17:28;;;;;;;4.65;2.10;;;;;;;24.49;28.93;99678.44;1734321;82;21717;-67
2021/05/11 13:20:11;;;;;;;4.83;2.25;;;;;;;24.52;29.37;99669.09;1779966;79;22921;-67
2021/05/11 13:25:15;;;;;;;5.65;2.25;;;;;;;24.20;29.62;99591.73;1806318;79;22987;-66
2021/05/11 13:30:56;;;;;;;4.53;2.25;;;;;;;24.75;29.60;99658.52;1819091;79;23421;-66
2021/05/11 13:33:29;;;;;;;3.75;2.20;;;;;;;24.86;29.37;99670.09;1779760;79;22947;-66
2021/05/11 13:36:12;;;;;;;6.55;2.35;;;;;;;24.88;29.94;99651.77;1946268;73;22805;-66
2021/05/11 13:38:57;;;;;;;5.78;2.50;;;;;;;24.91;28.99;99654.09;1844236;77;21142;-67
2021/05/11 13:41:38;;;;;;;13.50;3.10;;;;;;;24.92;29.23;99643.56;1769060;79;22987;-67
2021/05/11 13:44:11;;;;;;;10.43;2.75;;;;;;;24.92;29.68;99631.39;1761030;79;23490;-66
2021/05/11 13:46:57;;;;;;;7.83;2.40;;;;;;;24.90;29.40;99636.19;1723684;82;21166;-66
2021/05/11 13:49:31;;;;;;;5.50;2.47;;;;;;;24.88;28.37;99650.42;1777307;79;22934;-67
2021/05/11 13:52:07;;;;;;;4.95;2.50;;;;;;;24.76;28.96;99642.58;1763416;79;28167;-67
2021/05/11 13:54:49;;;;;;;5.45;2.37;;;;;;;25.11;29.37;99651.94;1780019;79;22944;-67
2021/05/11 14:01:33;;;;;;;4.25;2.47;;;;;;;25.50;28.00;99649.80;1819316;79;22815;-67
2021/05/11 14:03:16;;;;;;;6.47;2.47;;;;;;;25.45;28.45;99646.89;1817176;79;23262;-67
2021/05/11 14:05:52;;;;;;;6.42;2.52;;;;;;;25.40;28.71;99633.16;1803750;79;27744;-66
2021/05/11 14:08:36;;;;;;;10.15;3.20;;;;;;;25.64;28.27;99642.52;1928523;74;22950;-66
2021/05/11 14:11:12;;;;;;;8.10;2.65;;;;;;;25.93;28.39;99622.77;1762356;79;28637;-67
2021/05/11 14:13:51;;;;;;;8.13;2.77;;;;;;;25.78;27.72;99577.48;1779668;79;22951;-67
2021/05/11 14:16:28;;;;;;;4.92;2.33;;;;;;;26.27;27.25;99635.73;1789912;79;28116;-67
2021/05/11 14:19:15;;;;;;;5.58;2.40;;;;;;;26.15;27.75;99649.63;1760601;81;21126;-67
2021/05/11 14:21:51;;;;;;;7.55;2.70;;;;;;;26.31;27.64;99641.58;1816446;79;22137;-67
2021/05/11 14:24:33;;;;;;;7.50;2.50;;;;;;;26.25;27.36;99624.27;1810735;79;23407;-69
2021/05/11 14:27:13;;;;;;;6.20;2.35;;;;;;;26.22;27.32;99626.06;1819104;79;22879;-66
2021/05/11 14:29:50;;;;;;;4.92;2.60;;;;;;;25.93;27.48;99620.06;1796966;79;28098;-66
2021/05/11 14:32:37;;;;;;;6.92;2.30;;;;;;;25.85;27.73;99632.48;1768191;80;21527;-66
2021/05/11 14:35:11;;;;;;;5.97;2.37;;;;;;;25.83;27.25;99635.92;1780104;79;22929;-66
2021/05/11 14:37:46;;;;;;;4.50;2.55;;;;;;;25.64;27.74;99622.20;1812135;79;22973;-66
2021/05/11 14:40:32;;;;;;;5.90;2.60;;;;;;;25.54;27.93;99625.86;1723899;83;21183;-67
2021/05/11 14:43:13;;;;;;;4.53;2.40;;;;;;;25.53;28.31;99618.77;1918414;73;23316;-67
2021/05/11 14:45:55;;;;;;;6.00;2.50;;;;;;;25.34;28.56;99617.17;1928403;74;23320;-66
2021/05/11 14:48:40;;;;;;;4.55;2.60;;;;;;;25.35;29.01;99628.35;1897967;74;21587;-66
2021/05/11 14:51:22;;;;;;;5.60;2.33;;;;;;;25.41;28.16;99601.48;1932303;73;22852;-66
2021/05/11 14:53:57;;;;;;;5.20;2.47;;;;;;;25.52;27.98;99610.34;1763962;79;22971;-66
2021/05/11 14:56:41;;;;;;;4.55;2.45;;;;;;;25.48;28.33;99613.98;1910129;74;23314;-65
2021/05/11 14:59:19;;;;;;;6.08;2.35;;;;;;;25.46;28.21;99605.75;1819219;79;22815;-66
2021/05/11 15:02:01;;;;;;;6.55;2.52;;;;;;;25.33;28.29;99614.18;1795387;79;23371;-66
2021/05/11 15:04:38;;;;;;;4.22;2.40;;;;;;;25.23;28.38;99600.23;1764474;79;28173;-66
2021/05/11 15:07:16;;;;;;;3.87;2.35;;;;;;;25.37;29.01;99604.31;1779808;79;22924;-67
2021/05/11 15:09:58;;;;;;;5.70;2.37;;;;;;;25.51;28.80;99593.77;1801623;79;22962;-66
2021/05/11 15:12:41;;;;;;;5.45;2.47;;;;;;;25.52;28.67;99592.73;1765357;79;23620;-66
2021/05/11 15:15:27;;;;;;;11.63;2.90;;;;;;;25.49;28.09;99593.17;1667316;85;21252;-65
2021/05/11 15:18:08;;;;;;;7.60;3.30;;;;;;;25.49;28.38;99595.88;1819408;79;23343;-65
2021/05/11 15:20:50;;;;;;;7.95;2.83;;;;;;;25.53;28.56;99597.65;1793420;79;22996;-64
2021/05/11 15:23:24;;;;;;;9.20;3.00;;;;;;;25.48;28.66;99588.80;1819326;79;22850;-65
2021/05/11 15:26:00;;;;;;;9.75;3.15;;;;;;;25.36;28.61;99580.48;1764566;79;28631;-65
2021/05/11 15:28:37;;;;;;;4.33;2.50;;;;;;;25.50;28.47;99580.77;1833300;77;27971;-65
2021/05/11 15:31:22;;;;;;;8.65;2.42;;;;;;;25.81;27.95;99581.14;1798820;79;22966;-65
2021/05/11 15:34:02;;;;;;;13.03;3.12;;;;;;;25.84;28.30;99588.83;1779619;79;22936;-65
2021/05/11 15:36:47;;;;;;;4.60;2.90;;;;;;;25.72;28.23;99587.30;1751222;82;21154;-65
2021/05/11 15:58:10;;;;;;;8.68;3.00;;;;;;;26.50;27.64;99585.60;1721348;80;66062;-77
2021/05/11 16:29:41;;;;;;;10.20;3.12;;;;;;;24.56;31.26;99563.58;1759713;78;21160;-75
2021/05/11 17:52:57;;;;;;;46.92;6.45;;;;;;;22.56;36.17;99581.39;1785999;78;21304;-75
2021/05/11 18:08:55;;;;;;;8.90;4.50;;;;;;;22.09;38.78;99607.19;1759287;80;21253;-74
2021/05/11 18:11:42;;;;;;;10.35;4.47;;;;;;;22.07;39.17;99604.36;1788194;78;21149;-74
2021/05/11 18:30:21;;;;;;;61.73;8.38;;;;;;;21.59;41.40;99632.45;1726842;78;21189;-75
2021/05/11 18:48:55;;;;;;;14.63;6.25;;;;;;;20.49;48.64;99683.70;1773091;80;21587;-76
2021/05/11 19:13:16;;;;;;;8.33;4.58;;;;;;;19.04;54.17;99655.70;1746488;77;28455;-75
2021/05/11 19:55:07;;;;;;;7.42;4.67;;;;;;;18.79;54.63;99674.88;1776781;79;21348;-78
2021/05/11 19:57:52;;;;;;;7.67;4.60;;;;;;;18.80;54.80;99677.90;1752464;80;21154;-78
2021/05/11 20:13:55;;;;;;;8.05;5.05;;;;;;;18.54;55.43;99702.89;1725917;81;21521;-79
2021/05/11 21:55:15;;;;;;;6.50;5.10;;;;;;;16.22;55.18;99642.56;1777171;79;21146;-77
2021/05/11 22:24:02;;;;;;;7.40;5.12;;;;;;;15.65;56.31;99651.06;1784404;79;21205;-77
2021/05/11 22:58:07;;;;;;;6.70;4.60;;;;;;;15.62;55.59;99640.20;1773500;77;21114;-78
2021/05/11 23:11:31;;;;;;;10.98;5.30;;;;;;;15.28;56.57;99625.16;1772028;78;22316;-77
2021/05/11 23:14:17;;;;;;;8.08;5.05;;;;;;;15.12;57.02;99629.24;1766502;81;21208;-78
2021/05/11 23:32:51;;;;;;;4.60;3.00;;;;;;;14.76;52.16;99656.89;1755543;79;21132;-77
